createdAt,value
2022-10-13T00:01:26.501Z,2.75
2022-10-13T00:03:55.776Z,4.50
2022-10-13T00:06:25.958Z,5.95
2022-10-13T00:08:56.815Z,3.15
2022-10-13T00:11:27.582Z,2.88
2022-10-13T00:13:58.017Z,3.33
2022-10-13T00:16:27.956Z,2.58
2022-10-13T00:18:56.968Z,5.43
2022-10-13T00:21:28.330Z,2.85
2022-10-13T00:23:58.872Z,5.78
2022-10-13T00:26:28.517Z,1.27
2022-10-13T00:28:58.137Z,2.00
2022-10-13T00:31:29.388Z,2.05
2022-10-13T00:34:00.270Z,2.58
2022-10-13T00:36:29.630Z,4.68
2022-10-13T00:38:59.982Z,1.88
2022-10-13T00:41:28.743Z,2.15
2022-10-13T00:44:00.205Z,3.70
2022-10-13T00:46:31.319Z,2.20
2022-10-13T00:49:03.602Z,2.63
2022-10-13T00:54:07.189Z,1.50
2022-10-13T00:56:38.363Z,1.85
2022-10-13T01:01:42.943Z,1.85
2022-10-13T01:04:12.420Z,2.15
2022-10-13T01:06:41.789Z,3.90
2022-10-13T01:09:11.916Z,2.80
2022-10-13T01:12:00.277Z,4.80
2022-10-13T01:14:35.707Z,4.03
2022-10-13T01:17:13.881Z,3.53
2022-10-13T01:20:33.651Z,2.60
2022-10-13T01:23:20.039Z,1.60
2022-10-13T01:26:10.372Z,3.20
2022-10-13T01:29:14.294Z,4.75
2022-10-13T01:31:51.258Z,3.70
2022-10-13T01:34:28.159Z,3.03
2022-10-13T01:37:05.591Z,3.05
2022-10-13T01:39:41.272Z,2.15
2022-10-13T01:42:20.650Z,1.85
2022-10-13T01:44:53.468Z,1.80
2022-10-13T01:47:24.846Z,4.00
2022-10-13T01:49:55.955Z,4.18
2022-10-13T01:52:28.676Z,1.65
2022-10-13T01:54:57.406Z,2.50
2022-10-13T01:57:33.975Z,1.38
2022-10-13T02:00:05.774Z,4.68
2022-10-13T02:02:50.138Z,3.80
2022-10-13T02:05:27.943Z,1.92
2022-10-13T02:08:03.041Z,2.78
2022-10-13T02:10:40.407Z,2.28
2022-10-13T02:13:12.699Z,2.00
2022-10-13T02:15:45.083Z,3.38
2022-10-13T02:18:17.369Z,3.05
2022-10-13T02:20:47.150Z,3.65
2022-10-13T02:23:19.323Z,2.95
2022-10-13T02:25:50.141Z,1.27
2022-10-13T02:28:20.536Z,2.65
2022-10-13T02:30:49.300Z,2.05
2022-10-13T02:33:19.399Z,1.38
2022-10-13T02:35:47.919Z,1.02
2022-10-13T02:38:16.639Z,2.25
2022-10-13T02:40:45.397Z,2.63
2022-10-13T02:43:14.020Z,1.73
2022-10-13T02:45:42.625Z,1.73
2022-10-13T02:48:11.230Z,3.28
2022-10-13T02:50:41.312Z,1.58
2022-10-13T02:53:09.910Z,1.80
2022-10-13T02:55:38.516Z,2.67
2022-10-13T02:58:07.269Z,3.95
2022-10-13T03:00:35.908Z,2.33
2022-10-13T03:03:04.929Z,2.25
2022-10-13T03:05:33.604Z,1.77
2022-10-13T03:08:03.694Z,8.63
2022-10-13T03:10:32.415Z,4.95
2022-10-13T03:13:00.997Z,3.63
2022-10-13T03:15:29.572Z,2.63
2022-10-13T03:18:00.875Z,1.98
2022-10-13T03:20:29.481Z,2.63
2022-10-13T03:22:58.030Z,3.90
2022-10-13T03:25:28.225Z,2.40
2022-10-13T03:27:57.327Z,5.20
2022-10-13T03:30:26.486Z,6.47
2022-10-13T03:32:55.108Z,3.30
2022-10-13T03:35:23.709Z,3.78
2022-10-13T03:37:52.220Z,4.70
2022-10-13T03:40:21.876Z,2.13
2022-10-13T03:42:52.029Z,2.35
2022-10-13T03:45:20.669Z,4.60
2022-10-13T03:47:49.110Z,2.55
2022-10-13T03:50:17.880Z,5.13
2022-10-13T03:52:46.521Z,4.32
2022-10-13T03:55:15.236Z,3.10
2022-10-13T03:57:43.911Z,4.95
2022-10-13T04:00:16.142Z,1.98
2022-10-13T04:02:45.103Z,5.53
2022-10-13T04:05:14.069Z,3.00
2022-10-13T04:07:42.757Z,3.90
2022-10-13T04:10:20.171Z,4.47
2022-10-13T04:12:51.200Z,2.35
2022-10-13T04:15:21.626Z,3.13
2022-10-13T04:17:50.604Z,4.13
2022-10-13T04:20:19.923Z,3.30
2022-10-13T04:22:48.489Z,4.90
2022-10-13T04:25:17.374Z,2.42
2022-10-13T04:27:48.209Z,5.65
2022-10-13T04:30:16.988Z,4.93
2022-10-13T04:32:47.059Z,4.00
2022-10-13T04:35:17.036Z,5.20
2022-10-13T04:37:45.609Z,3.28
2022-10-13T04:40:14.906Z,7.70
2022-10-13T04:42:43.594Z,3.40
2022-10-13T04:45:12.542Z,5.43
2022-10-13T04:50:13.165Z,5.20
2022-10-13T04:52:41.824Z,4.03
2022-10-13T04:55:10.555Z,6.22
2022-10-13T04:57:39.213Z,5.18
2022-10-13T05:00:09.384Z,4.35
2022-10-13T05:02:38.790Z,3.80
2022-10-13T05:05:08.535Z,5.82
2022-10-13T05:07:38.644Z,7.28
2022-10-13T05:10:07.766Z,3.70
2022-10-13T05:12:36.696Z,10.10
2022-10-13T05:15:05.915Z,6.45
2022-10-13T05:17:35.648Z,2.55
2022-10-13T05:20:11.336Z,8.20
2022-10-13T05:22:41.522Z,4.25
2022-10-13T05:25:10.369Z,4.63
2022-10-13T05:27:38.972Z,5.55
2022-10-13T05:30:12.272Z,4.32
2022-10-13T05:32:40.866Z,4.63
2022-10-13T05:35:10.984Z,9.68
2022-10-13T05:37:43.651Z,5.28
2022-10-13T05:40:13.288Z,16.93
2022-10-13T05:42:41.864Z,9.90
2022-10-13T05:45:13.053Z,6.65
2022-10-13T05:47:41.686Z,6.32
2022-10-13T05:50:10.413Z,5.85
2022-10-13T05:52:44.301Z,8.63
2022-10-13T05:55:16.379Z,6.82
2022-10-13T05:57:49.027Z,7.57
2022-10-13T06:00:20.086Z,7.00
2022-10-13T06:02:54.671Z,8.02
2022-10-13T06:05:26.069Z,7.63
2022-10-13T06:07:58.373Z,8.15
2022-10-13T06:10:27.721Z,14.38
2022-10-13T06:12:56.617Z,5.18
2022-10-13T06:15:28.214Z,9.13
2022-10-13T06:17:58.252Z,6.65
2022-10-13T06:20:27.720Z,9.05
2022-10-13T06:22:58.504Z,7.68
2022-10-13T06:25:27.267Z,6.25
2022-10-13T06:27:55.897Z,5.18
2022-10-13T06:30:24.689Z,12.23
2022-10-13T06:32:55.405Z,5.95
2022-10-13T06:35:24.459Z,7.82
2022-10-13T06:37:53.450Z,8.27
2022-10-13T06:40:23.589Z,7.90
2022-10-13T06:42:52.690Z,6.37
2022-10-13T06:45:24.533Z,8.45
2022-10-13T06:47:54.439Z,6.53
2022-10-13T06:50:23.673Z,5.68
2022-10-13T06:52:53.045Z,9.73
2022-10-13T06:55:23.626Z,8.93
2022-10-13T06:57:52.374Z,11.20
2022-10-13T07:00:21.202Z,10.25
2022-10-13T07:02:52.797Z,10.27
2022-10-13T07:05:21.617Z,12.55
2022-10-13T07:07:53.058Z,11.70
2022-10-13T07:10:23.793Z,10.57
2022-10-13T07:12:52.532Z,14.70
2022-10-13T07:15:21.237Z,14.63
2022-10-13T07:17:52.372Z,14.85
2022-10-13T07:20:21.164Z,10.48
2022-10-13T07:22:49.992Z,11.50
2022-10-13T07:25:22.929Z,10.70
2022-10-13T07:27:51.592Z,12.00
2022-10-13T07:30:20.416Z,12.75
2022-10-13T07:32:49.565Z,19.00
2022-10-13T07:35:18.375Z,15.70
2022-10-13T07:37:47.365Z,13.57
2022-10-13T07:40:16.022Z,13.32
2022-10-13T07:42:46.175Z,14.82
2022-10-13T07:45:14.926Z,17.13
2022-10-13T07:47:43.853Z,13.60
2022-10-13T07:50:12.618Z,14.57
2022-10-13T07:52:41.217Z,11.10
2022-10-13T07:55:13.062Z,14.48
2022-10-13T07:57:41.831Z,13.43
2022-10-13T08:00:13.338Z,14.32
2022-10-13T08:02:42.891Z,21.08
2022-10-13T08:05:11.677Z,16.30
2022-10-13T08:07:40.464Z,15.35
2022-10-13T08:10:10.150Z,12.30
2022-10-13T08:12:38.923Z,16.23
2022-10-13T08:15:08.694Z,10.90
2022-10-13T08:17:38.810Z,13.88
2022-10-13T08:20:08.642Z,15.20
2022-10-13T08:22:37.301Z,10.25
2022-10-13T08:25:07.491Z,13.68
2022-10-13T08:30:21.030Z,13.43
2022-10-13T08:32:51.270Z,12.68
2022-10-13T08:35:19.977Z,11.20
2022-10-13T08:37:48.615Z,12.32
2022-10-13T08:40:21.051Z,17.17
2022-10-13T08:42:49.977Z,11.73
2022-10-13T08:45:40.260Z,10.13
2022-10-13T08:50:45.843Z,12.55
2022-10-13T08:53:27.278Z,8.98
2022-10-13T08:55:59.120Z,13.68
2022-10-13T08:58:31.395Z,10.88
2022-10-13T09:01:11.988Z,13.88
2022-10-13T09:03:50.508Z,10.48
2022-10-13T09:06:27.889Z,5.35
2022-10-13T09:08:59.188Z,9.27
2022-10-13T09:11:29.744Z,11.80
2022-10-13T09:14:00.539Z,6.43
2022-10-13T09:16:32.069Z,7.35
2022-10-13T09:19:23.955Z,9.82
2022-10-13T09:24:23.614Z,8.85
2022-10-13T09:27:02.911Z,7.65
2022-10-13T09:29:34.204Z,2.72
2022-10-13T09:32:19.025Z,8.65
2022-10-13T09:34:50.179Z,4.25
2022-10-13T09:37:21.876Z,7.75
2022-10-13T09:40:03.589Z,4.30
2022-10-13T09:42:33.264Z,13.52
2022-10-13T09:45:13.893Z,7.95
2022-10-13T09:47:50.107Z,9.07
2022-10-13T09:50:23.946Z,11.35
2022-10-13T09:52:54.741Z,7.47
2022-10-13T09:55:33.504Z,9.95
2022-10-13T09:58:07.181Z,5.05
2022-10-13T10:00:37.266Z,13.32
2022-10-13T10:03:12.364Z,7.20
2022-10-13T10:05:50.711Z,7.55
2022-10-13T10:08:33.639Z,6.22
2022-10-13T10:11:04.923Z,7.97
2022-10-13T10:13:33.765Z,7.32
2022-10-13T10:16:07.828Z,12.30
2022-10-13T10:18:43.519Z,5.95
2022-10-13T10:21:23.821Z,5.55
2022-10-13T10:24:01.443Z,7.33
2022-10-13T10:26:42.194Z,6.15
2022-10-13T10:29:21.286Z,5.47
2022-10-13T10:32:13.411Z,7.93
2022-10-13T10:34:48.782Z,4.47
2022-10-13T10:37:27.058Z,8.48
2022-10-13T10:40:11.976Z,4.50
2022-10-13T10:43:04.873Z,6.20
2022-10-13T10:45:37.300Z,5.63
2022-10-13T10:48:14.327Z,8.60
2022-10-13T10:50:43.574Z,9.45
2022-10-13T10:53:23.606Z,5.68
2022-10-13T10:56:01.019Z,5.13
2022-10-13T10:58:38.829Z,3.67
2022-10-13T11:01:16.537Z,7.88
2022-10-13T11:03:53.223Z,7.25
2022-10-13T11:06:34.243Z,9.13
2022-10-13T11:09:05.745Z,7.55
2022-10-13T11:11:42.443Z,5.45
2022-10-13T11:14:32.159Z,6.10
2022-10-13T11:17:11.843Z,7.53
2022-10-13T11:19:41.979Z,3.85
2022-10-13T11:22:27.580Z,7.28
2022-10-13T11:25:01.100Z,5.38
2022-10-13T11:27:41.059Z,3.63
2022-10-13T11:30:47.555Z,8.00
2022-10-13T11:33:55.916Z,3.67
2022-10-13T11:36:51.438Z,5.60
2022-10-13T11:40:04.057Z,9.45
2022-10-13T11:43:17.540Z,5.32
2022-10-13T11:46:15.559Z,4.88
2022-10-13T11:49:07.978Z,5.43
2022-10-13T11:51:52.501Z,6.72
2022-10-13T11:54:31.099Z,5.47
2022-10-13T11:57:01.461Z,5.65
2022-10-13T11:59:32.500Z,4.07
2022-10-13T12:04:35.907Z,7.32
2022-10-13T12:07:07.382Z,6.10
2022-10-13T12:09:41.969Z,5.45
2022-10-13T12:12:17.214Z,2.90
2022-10-13T12:14:50.153Z,2.92
2022-10-13T12:17:23.856Z,5.57
2022-10-13T12:19:54.111Z,4.18
2022-10-13T12:22:22.826Z,7.43
2022-10-13T12:25:07.462Z,6.40
2022-10-13T12:27:47.586Z,6.20
2022-10-13T12:30:23.337Z,2.47
2022-10-13T12:32:53.734Z,3.08
2022-10-13T12:35:25.673Z,6.22
2022-10-13T12:37:56.332Z,2.67
2022-10-13T12:40:26.504Z,6.32
2022-10-13T12:42:57.483Z,5.60
2022-10-13T12:45:30.199Z,5.55
2022-10-13T12:47:58.966Z,8.02
2022-10-13T12:50:38.133Z,7.18
2022-10-13T12:53:14.322Z,4.15
2022-10-13T12:55:59.336Z,5.95
2022-10-13T12:58:32.929Z,4.20
2022-10-13T13:01:17.988Z,4.15
2022-10-13T13:03:47.104Z,5.25
2022-10-13T13:06:36.419Z,6.65
2022-10-13T13:09:23.360Z,5.15
2022-10-13T13:12:17.394Z,4.05
2022-10-13T13:14:49.635Z,5.15
2022-10-13T13:20:27.148Z,5.45
2022-10-13T13:22:56.038Z,6.55
2022-10-13T13:25:25.220Z,4.05
2022-10-13T13:27:54.403Z,5.35
2022-10-13T13:30:26.161Z,7.03
2022-10-13T13:32:54.870Z,5.60
2022-10-13T13:35:23.382Z,4.45
2022-10-13T13:37:53.720Z,5.75
2022-10-13T13:40:24.325Z,6.03
2022-10-13T13:42:53.483Z,9.00
2022-10-13T13:45:25.825Z,5.90
2022-10-13T13:48:00.529Z,5.13
2022-10-13T13:50:34.610Z,4.00
2022-10-13T13:53:03.998Z,5.97
2022-10-13T13:55:33.256Z,5.22
2022-10-13T13:58:02.378Z,8.00
2022-10-13T14:00:32.460Z,6.93
2022-10-13T14:03:02.153Z,17.05
2022-10-13T14:05:31.058Z,19.50
2022-10-13T14:07:59.846Z,22.05
2022-10-13T14:10:29.468Z,25.33
2022-10-13T14:12:58.079Z,8.98
2022-10-13T14:15:29.666Z,5.80
2022-10-13T14:18:00.270Z,6.70
2022-10-13T14:20:29.109Z,8.10
2022-10-13T14:22:57.632Z,7.28
2022-10-13T14:25:26.463Z,5.38
2022-10-13T14:27:55.144Z,6.18
2022-10-13T14:30:23.889Z,6.47
2022-10-13T14:32:52.509Z,4.10
2022-10-13T14:35:22.948Z,6.32
2022-10-13T14:37:51.692Z,4.90
2022-10-13T14:40:20.305Z,4.53
2022-10-13T14:42:49.027Z,4.95
2022-10-13T14:45:18.288Z,4.82
2022-10-13T14:47:47.108Z,5.13
2022-10-13T14:50:16.974Z,14.82
2022-10-13T14:52:47.106Z,4.82
2022-10-13T14:55:15.811Z,5.70
2022-10-13T14:57:45.249Z,8.93
2022-10-13T15:00:16.773Z,5.53
2022-10-13T15:02:45.364Z,6.85
2022-10-13T15:05:14.042Z,10.15
2022-10-13T15:07:42.766Z,7.72
2022-10-13T15:10:13.036Z,8.23
2022-10-13T15:12:41.684Z,8.38
2022-10-13T15:15:11.618Z,5.57
2022-10-13T15:17:40.306Z,7.63
2022-10-13T15:20:10.268Z,12.55
2022-10-13T15:22:38.944Z,6.25
2022-10-13T15:25:13.086Z,11.27
2022-10-13T15:27:42.317Z,8.18
2022-10-13T15:30:12.347Z,7.93
2022-10-13T15:32:41.083Z,7.65
2022-10-13T15:35:10.245Z,5.55
2022-10-13T15:37:42.146Z,4.38
2022-10-13T15:40:13.671Z,7.35
2022-10-13T15:42:42.327Z,6.82
2022-10-13T15:45:12.238Z,5.03
2022-10-13T15:47:41.227Z,8.80
2022-10-13T15:50:12.846Z,6.93
2022-10-13T15:52:42.034Z,5.65
2022-10-13T15:55:13.610Z,9.38
2022-10-13T15:57:42.328Z,6.90
2022-10-13T16:00:13.865Z,5.97
2022-10-13T16:02:43.890Z,6.07
2022-10-13T16:05:14.487Z,5.50
2022-10-13T16:07:44.150Z,5.40
2022-10-13T16:10:16.029Z,8.50
2022-10-13T16:12:49.492Z,4.30
2022-10-13T16:15:19.184Z,10.38
2022-10-13T16:17:47.810Z,16.67
2022-10-13T16:20:16.633Z,16.73
2022-10-13T16:22:45.258Z,25.33
2022-10-13T16:25:15.654Z,19.33
2022-10-13T16:27:44.690Z,16.35
2022-10-13T16:30:14.203Z,30.67
2022-10-13T16:32:42.996Z,42.63
2022-10-13T16:35:11.996Z,54.90
2022-10-13T16:37:40.767Z,52.83
2022-10-13T16:40:10.363Z,49.95
2022-10-13T16:42:42.063Z,57.65
2022-10-13T16:47:39.496Z,47.95
2022-10-13T16:50:09.881Z,39.35
2022-10-13T16:52:38.898Z,39.30
2022-10-13T16:55:08.661Z,26.92
2022-10-13T16:57:37.281Z,17.80
2022-10-13T17:00:08.979Z,17.73
2022-10-13T17:02:37.789Z,13.60
2022-10-13T17:05:06.724Z,11.77
2022-10-13T17:07:35.380Z,12.25
2022-10-13T17:10:04.838Z,9.80
2022-10-13T17:12:33.421Z,6.50
2022-10-13T17:15:02.178Z,6.50
2022-10-13T17:17:32.238Z,10.00
2022-10-13T17:20:00.899Z,7.23
2022-10-13T17:22:29.619Z,7.70
2022-10-13T17:24:58.085Z,6.10
2022-10-13T17:27:26.754Z,6.07
2022-10-13T17:29:55.344Z,4.90
2022-10-13T17:32:24.059Z,8.10
2022-10-13T17:34:54.361Z,7.88
2022-10-13T17:37:23.348Z,3.47
2022-10-13T17:39:52.092Z,4.57
2022-10-13T17:42:20.815Z,6.28
2022-10-13T17:44:50.258Z,7.95
2022-10-13T17:47:19.296Z,6.60
2022-10-13T17:49:48.930Z,6.05
2022-10-13T17:52:20.612Z,6.38
2022-10-13T17:54:49.431Z,9.02
2022-10-13T17:57:18.185Z,8.88
2022-10-13T17:59:47.449Z,5.07
2022-10-13T18:02:16.101Z,5.05
2022-10-13T18:04:45.009Z,6.70
2022-10-13T18:07:13.656Z,6.82
2022-10-13T18:09:43.948Z,7.50
2022-10-13T18:12:12.649Z,5.88
2022-10-13T18:14:41.303Z,4.35
2022-10-13T18:17:09.932Z,6.30
2022-10-13T18:19:40.428Z,10.38
2022-10-13T18:22:09.304Z,6.57
2022-10-13T18:24:38.009Z,6.38
2022-10-13T18:27:08.149Z,6.57
2022-10-13T18:29:37.274Z,5.63
2022-10-13T18:32:06.008Z,7.60
2022-10-13T18:34:34.708Z,13.70
2022-10-13T18:37:05.852Z,7.43
2022-10-13T18:39:35.293Z,8.52
2022-10-13T18:42:03.809Z,7.15
2022-10-13T18:44:40.402Z,7.63
2022-10-13T18:47:09.232Z,5.18
2022-10-13T18:49:37.809Z,9.45
2022-10-13T18:52:06.623Z,7.38
2022-10-13T18:54:39.689Z,8.73
2022-10-13T18:57:08.531Z,7.95
2022-10-13T18:59:38.856Z,8.85
2022-10-13T19:02:09.131Z,5.75
2022-10-13T19:04:37.771Z,5.13
2022-10-13T19:07:06.331Z,8.70
2022-10-13T19:09:35.111Z,10.38
2022-10-13T19:12:03.677Z,9.32
2022-10-13T19:14:32.371Z,5.70
2022-10-13T19:17:02.184Z,6.45
2022-10-13T19:19:33.009Z,9.43
2022-10-13T19:22:02.449Z,3.70
2022-10-13T19:24:31.195Z,9.35
2022-10-13T19:26:59.871Z,7.32
2022-10-13T19:29:28.831Z,8.95
2022-10-13T19:31:57.592Z,6.30
2022-10-13T19:34:26.259Z,8.48
2022-10-13T19:36:59.900Z,4.82
2022-10-13T19:39:29.478Z,12.27
2022-10-13T19:41:58.935Z,6.38
2022-10-13T19:44:27.698Z,5.63
2022-10-13T19:46:56.395Z,9.85
2022-10-13T19:49:26.644Z,6.32
2022-10-13T19:51:57.373Z,8.48
2022-10-13T19:54:30.200Z,7.30
2022-10-13T19:57:01.732Z,5.43
2022-10-13T19:59:30.522Z,5.85
2022-10-13T20:01:59.279Z,6.88
2022-10-13T20:04:28.178Z,7.95
2022-10-13T20:06:58.344Z,7.20
2022-10-13T20:09:27.484Z,9.87
2022-10-13T20:11:56.482Z,7.95
2022-10-13T20:14:25.147Z,9.48
2022-10-13T20:16:57.647Z,8.23
2022-10-13T20:19:28.281Z,10.57
2022-10-13T20:22:00.845Z,13.77
2022-10-13T20:24:29.484Z,7.50
2022-10-13T20:26:59.444Z,10.13
2022-10-13T20:29:28.267Z,7.85
2022-10-13T20:31:56.849Z,8.02
2022-10-13T20:34:25.421Z,10.55
2022-10-13T20:36:54.183Z,7.80
2022-10-13T20:39:24.319Z,10.00
2022-10-13T20:41:52.939Z,9.52
2022-10-13T20:44:21.658Z,11.32
2022-10-13T20:46:50.244Z,11.80
2022-10-13T20:49:19.023Z,9.85
2022-10-13T20:51:48.005Z,11.73
2022-10-13T20:54:17.614Z,10.65
2022-10-13T20:56:48.128Z,12.00
2022-10-13T20:59:16.980Z,8.68
2022-10-13T21:01:45.699Z,9.13
2022-10-13T21:04:14.373Z,15.32
2022-10-13T21:06:44.065Z,10.90
2022-10-13T21:09:13.042Z,10.57
2022-10-13T21:11:43.682Z,15.38
2022-10-13T21:14:13.874Z,11.30
2022-10-13T21:16:42.547Z,7.70
2022-10-13T21:19:15.291Z,7.93
2022-10-13T21:24:12.935Z,9.77
2022-10-13T21:26:41.779Z,9.70
2022-10-13T21:29:16.664Z,9.80
2022-10-13T21:31:45.396Z,10.20
2022-10-13T21:34:14.208Z,9.43
2022-10-13T21:36:44.691Z,12.35
2022-10-13T21:39:14.871Z,10.00
2022-10-13T21:41:43.684Z,8.70
2022-10-13T21:44:15.514Z,15.40
2022-10-13T21:46:44.421Z,10.98
2022-10-13T21:49:12.953Z,12.13
2022-10-13T21:51:42.039Z,12.43
2022-10-13T21:54:12.551Z,10.30
2022-10-13T21:56:42.086Z,8.75
2022-10-13T21:59:12.708Z,9.68
2022-10-13T22:01:43.408Z,6.82
2022-10-13T22:04:15.418Z,14.20
2022-10-13T22:06:44.955Z,9.30
2022-10-13T22:09:14.518Z,11.82
2022-10-13T22:11:44.188Z,9.88
2022-10-13T22:14:13.098Z,11.52
2022-10-13T22:16:45.125Z,10.23
2022-10-13T22:19:14.359Z,10.23
2022-10-13T22:21:44.845Z,11.05
2022-10-13T22:24:15.722Z,11.32
2022-10-13T22:26:45.469Z,8.38
2022-10-13T22:29:16.539Z,9.55
2022-10-13T22:31:47.170Z,8.55
2022-10-13T22:34:16.281Z,14.15
2022-10-13T22:36:45.536Z,10.10
2022-10-13T22:39:14.994Z,8.82
2022-10-13T22:41:43.654Z,10.07
2022-10-13T22:44:12.385Z,11.45
2022-10-13T22:46:41.750Z,10.45
2022-10-13T22:49:16.283Z,6.88
2022-10-13T22:51:45.087Z,10.13
2022-10-13T22:54:13.635Z,13.23
2022-10-13T22:56:43.338Z,11.05
2022-10-13T22:59:14.008Z,11.52
2022-10-13T23:01:42.737Z,9.95
2022-10-13T23:04:11.543Z,7.95
2022-10-13T23:06:41.708Z,7.10
2022-10-13T23:09:13.871Z,9.17
2022-10-13T23:11:42.848Z,8.40
2022-10-13T23:14:14.077Z,9.45
2022-10-13T23:16:42.626Z,8.55
2022-10-13T23:19:11.299Z,6.07
2022-10-13T23:21:41.296Z,6.65
2022-10-13T23:24:12.295Z,6.93
2022-10-13T23:26:40.994Z,11.15
2022-10-13T23:29:10.787Z,7.28
2022-10-13T23:31:39.563Z,6.45
2022-10-13T23:34:08.219Z,7.15
2022-10-13T23:36:37.893Z,7.00
2022-10-13T23:39:08.584Z,12.27
2022-10-13T23:41:37.190Z,9.50
2022-10-13T23:44:06.165Z,7.85
2022-10-13T23:46:34.797Z,9.07
2022-10-13T23:49:03.342Z,8.43
2022-10-13T23:51:32.498Z,10.43
2022-10-13T23:54:01.110Z,10.98
2022-10-13T23:56:31.260Z,7.78
2022-10-13T23:59:01.394Z,9.30
